sensor_id;sensor_type;location;lat;lon;timestamp;P1;durP1;ratioP1;P2;durP2;ratioP2
10731;SDS011;5417;42.686;23.244;2023-05-10T00:00:29;5.63;;;5.13;;
10731;SDS011;5417;42.686;23.244;2023-05-10T00:02:56;5.80;;;5.40;;
10731;SDS011;5417;42.686;23.244;2023-05-10T00:05:24;5.33;;;5.03;;
10731;SDS011;5417;42.686;23.244;2023-05-10T00:07:51;5.97;;;5.57;;
10731;SDS011;5417;42.686;23.244;2023-05-10T00:10:18;5.30;;;4.80;;
10731;SDS011;5417;42.686;23.244;2023-05-10T00:12:45;6.03;;;5.63;;
10731;SDS011;5417;42.686;23.244;2023-05-10T00:15:12;5.67;;;5.23;;
10731;SDS011;5417;42.686;23.244;2023-05-10T00:17:41;5.60;;;5.23;;
10731;SDS011;5417;42.686;23.244;2023-05-10T00:20:09;5.77;;;5.37;;
10731;SDS011;5417;42.686;23.244;2023-05-10T00:22:38;5.80;;;5.40;;
10731;SDS011;5417;42.686;23.244;2023-05-10T00:25:06;5.97;;;5.57;;
10731;SDS011;5417;42.686;23.244;2023-05-10T00:27:36;6.23;;;5.73;;
10731;SDS011;5417;42.686;23.244;2023-05-10T00:30:03;6.07;;;5.67;;
10731;SDS011;5417;42.686;23.244;2023-05-10T00:32:32;6.27;;;5.87;;
10731;SDS011;5417;42.686;23.244;2023-05-10T00:35:00;5.30;;;5.00;;
10731;SDS011;5417;42.686;23.244;2023-05-10T00:37:27;5.73;;;5.43;;
10731;SDS011;5417;42.686;23.244;2023-05-10T00:39:54;5.63;;;5.23;;
10731;SDS011;5417;42.686;23.244;2023-05-10T00:42:23;5.63;;;5.33;;
10731;SDS011;5417;42.686;23.244;2023-05-10T00:44:58;5.83;;;5.43;;
10731;SDS011;5417;42.686;23.244;2023-05-10T00:47:25;6.47;;;6.10;;
10731;SDS011;5417;42.686;23.244;2023-05-10T00:49:52;5.80;;;5.40;;
10731;SDS011;5417;42.686;23.244;2023-05-10T00:52:22;5.90;;;5.50;;
10731;SDS011;5417;42.686;23.244;2023-05-10T00:55:00;5.43;;;5.13;;
10731;SDS011;5417;42.686;23.244;2023-05-10T00:57:28;6.60;;;6.20;;
10731;SDS011;5417;42.686;23.244;2023-05-10T00:59:57;6.57;;;6.10;;
10731;SDS011;5417;42.686;23.244;2023-05-10T01:02:25;6.33;;;5.93;;
10731;SDS011;5417;42.686;23.244;2023-05-10T01:04:54;7.17;;;6.67;;
10731;SDS011;5417;42.686;23.244;2023-05-10T01:07:27;6.50;;;6.10;;
10731;SDS011;5417;42.686;23.244;2023-05-10T01:09:54;6.43;;;6.03;;
10731;SDS011;5417;42.686;23.244;2023-05-10T01:12:23;6.07;;;5.77;;
10731;SDS011;5417;42.686;23.244;2023-05-10T01:14:50;5.97;;;5.57;;
10731;SDS011;5417;42.686;23.244;2023-05-10T01:17:17;6.77;;;6.17;;
10731;SDS011;5417;42.686;23.244;2023-05-10T01:19:45;6.53;;;6.13;;
10731;SDS011;5417;42.686;23.244;2023-05-10T01:22:16;7.60;;;7.00;;
10731;SDS011;5417;42.686;23.244;2023-05-10T01:28:17;7.30;;;6.80;;
10731;SDS011;5417;42.686;23.244;2023-05-10T01:31:33;6.90;;;6.50;;
10731;SDS011;5417;42.686;23.244;2023-05-10T01:34:25;6.70;;;6.30;;
10731;SDS011;5417;42.686;23.244;2023-05-10T01:36:58;6.93;;;6.43;;
10731;SDS011;5417;42.686;23.244;2023-05-10T01:39:32;6.77;;;6.27;;
10731;SDS011;5417;42.686;23.244;2023-05-10T01:42:03;6.70;;;6.30;;
10731;SDS011;5417;42.686;23.244;2023-05-10T01:44:41;6.53;;;6.13;;
10731;SDS011;5417;42.686;23.244;2023-05-10T01:47:25;5.97;;;5.67;;
10731;SDS011;5417;42.686;23.244;2023-05-10T01:50:06;6.20;;;5.80;;
10731;SDS011;5417;42.686;23.244;2023-05-10T01:52:41;5.30;;;4.90;;
10731;SDS011;5417;42.686;23.244;2023-05-10T01:55:11;5.20;;;4.90;;
10731;SDS011;5417;42.686;23.244;2023-05-10T01:57:42;4.77;;;4.47;;
10731;SDS011;5417;42.686;23.244;2023-05-10T02:00:11;5.33;;;4.93;;
10731;SDS011;5417;42.686;23.244;2023-05-10T02:02:44;5.27;;;4.97;;
10731;SDS011;5417;42.686;23.244;2023-05-10T02:05:17;4.20;;;4.00;;
10731;SDS011;5417;42.686;23.244;2023-05-10T02:07:47;4.43;;;4.17;;
10731;SDS011;5417;42.686;23.244;2023-05-10T02:10:15;4.43;;;4.20;;
10731;SDS011;5417;42.686;23.244;2023-05-10T02:12:43;4.47;;;4.17;;
10731;SDS011;5417;42.686;23.244;2023-05-10T02:15:15;4.53;;;4.23;;
10731;SDS011;5417;42.686;23.244;2023-05-10T02:17:47;4.20;;;4.00;;
10731;SDS011;5417;42.686;23.244;2023-05-10T02:20:15;4.33;;;4.13;;
10731;SDS011;5417;42.686;23.244;2023-05-10T02:22:45;3.70;;;3.50;;
10731;SDS011;5417;42.686;23.244;2023-05-10T02:25:15;4.07;;;3.87;;
10731;SDS011;5417;42.686;23.244;2023-05-10T02:27:44;4.10;;;3.63;;
10731;SDS011;5417;42.686;23.244;2023-05-10T02:30:12;3.80;;;3.60;;
10731;SDS011;5417;42.686;23.244;2023-05-10T02:32:39;3.87;;;3.67;;
10731;SDS011;5417;42.686;23.244;2023-05-10T02:35:13;4.20;;;4.00;;
10731;SDS011;5417;42.686;23.244;2023-05-10T02:37:41;4.27;;;3.97;;
10731;SDS011;5417;42.686;23.244;2023-05-10T02:40:11;3.97;;;3.77;;
10731;SDS011;5417;42.686;23.244;2023-05-10T02:42:39;4.50;;;4.20;;
10731;SDS011;5417;42.686;23.244;2023-05-10T02:45:10;4.20;;;3.80;;
10731;SDS011;5417;42.686;23.244;2023-05-10T02:47:39;4.03;;;3.83;;
10731;SDS011;5417;42.686;23.244;2023-05-10T02:50:07;4.27;;;3.97;;
10731;SDS011;5417;42.686;23.244;2023-05-10T02:52:38;4.03;;;3.83;;
10731;SDS011;5417;42.686;23.244;2023-05-10T02:55:17;4.23;;;3.90;;
10731;SDS011;5417;42.686;23.244;2023-05-10T02:57:58;4.17;;;3.97;;
10731;SDS011;5417;42.686;23.244;2023-05-10T03:00:34;4.63;;;4.33;;
10731;SDS011;5417;42.686;23.244;2023-05-10T03:03:21;4.93;;;4.63;;
10731;SDS011;5417;42.686;23.244;2023-05-10T03:05:48;4.87;;;4.40;;
10731;SDS011;5417;42.686;23.244;2023-05-10T03:08:16;4.67;;;4.27;;
10731;SDS011;5417;42.686;23.244;2023-05-10T03:10:46;5.07;;;4.77;;
10731;SDS011;5417;42.686;23.244;2023-05-10T03:13:35;4.97;;;4.57;;
10731;SDS011;5417;42.686;23.244;2023-05-10T03:16:12;4.50;;;4.20;;
10731;SDS011;5417;42.686;23.244;2023-05-10T03:18:42;4.83;;;4.43;;
10731;SDS011;5417;42.686;23.244;2023-05-10T03:21:20;4.40;;;4.10;;
10731;SDS011;5417;42.686;23.244;2023-05-10T03:24:10;4.70;;;4.40;;
10731;SDS011;5417;42.686;23.244;2023-05-10T03:26:49;4.70;;;4.30;;
10731;SDS011;5417;42.686;23.244;2023-05-10T03:29:21;4.57;;;4.37;;
10731;SDS011;5417;42.686;23.244;2023-05-10T03:31:49;4.67;;;4.43;;
10731;SDS011;5417;42.686;23.244;2023-05-10T03:34:20;4.27;;;4.00;;
10731;SDS011;5417;42.686;23.244;2023-05-10T03:36:50;4.17;;;3.97;;
10731;SDS011;5417;42.686;23.244;2023-05-10T03:39:18;4.70;;;4.30;;
10731;SDS011;5417;42.686;23.244;2023-05-10T03:41:46;5.80;;;4.57;;
10731;SDS011;5417;42.686;23.244;2023-05-10T03:44:13;4.60;;;4.30;;
10731;SDS011;5417;42.686;23.244;2023-05-10T03:46:45;4.50;;;4.20;;
10731;SDS011;5417;42.686;23.244;2023-05-10T03:49:14;4.20;;;3.80;;
10731;SDS011;5417;42.686;23.244;2023-05-10T03:51:41;4.07;;;3.77;;
10731;SDS011;5417;42.686;23.244;2023-05-10T03:54:07;4.40;;;4.00;;
10731;SDS011;5417;42.686;23.244;2023-05-10T03:56:36;4.33;;;4.03;;
10731;SDS011;5417;42.686;23.244;2023-05-10T03:59:02;3.87;;;3.67;;
10731;SDS011;5417;42.686;23.244;2023-05-10T04:01:34;4.63;;;4.33;;
10731;SDS011;5417;42.686;23.244;2023-05-10T04:04:07;4.57;;;4.10;;
10731;SDS011;5417;42.686;23.244;2023-05-10T04:06:34;4.17;;;3.87;;
10731;SDS011;5417;42.686;23.244;2023-05-10T04:09:01;4.17;;;3.97;;
10731;SDS011;5417;42.686;23.244;2023-05-10T04:11:29;4.27;;;3.97;;
10731;SDS011;5417;42.686;23.244;2023-05-10T04:13:59;4.60;;;4.30;;
10731;SDS011;5417;42.686;23.244;2023-05-10T04:16:26;4.97;;;4.67;;
10731;SDS011;5417;42.686;23.244;2023-05-10T04:18:52;4.93;;;4.53;;
10731;SDS011;5417;42.686;23.244;2023-05-10T04:21:19;4.30;;;4.00;;
10731;SDS011;5417;42.686;23.244;2023-05-10T04:23:56;4.37;;;4.13;;
10731;SDS011;5417;42.686;23.244;2023-05-10T04:26:23;4.03;;;3.83;;
10731;SDS011;5417;42.686;23.244;2023-05-10T04:28:57;4.67;;;4.37;;
10731;SDS011;5417;42.686;23.244;2023-05-10T04:31:29;6.93;;;5.73;;
10731;SDS011;5417;42.686;23.244;2023-05-10T04:33:58;5.03;;;4.53;;
10731;SDS011;5417;42.686;23.244;2023-05-10T04:36:32;4.67;;;4.37;;
10731;SDS011;5417;42.686;23.244;2023-05-10T04:39:02;5.00;;;4.70;;
10731;SDS011;5417;42.686;23.244;2023-05-10T04:41:29;4.57;;;4.27;;
10731;SDS011;5417;42.686;23.244;2023-05-10T04:43:58;5.00;;;4.70;;
10731;SDS011;5417;42.686;23.244;2023-05-10T04:46:24;5.37;;;4.93;;
10731;SDS011;5417;42.686;23.244;2023-05-10T04:48:51;5.00;;;4.57;;
10731;SDS011;5417;42.686;23.244;2023-05-10T04:51:18;5.33;;;5.03;;
10731;SDS011;5417;42.686;23.244;2023-05-10T04:54:03;5.50;;;5.10;;
10731;SDS011;5417;42.686;23.244;2023-05-10T04:56:30;4.53;;;4.20;;
10731;SDS011;5417;42.686;23.244;2023-05-10T04:59:03;5.27;;;4.97;;
10731;SDS011;5417;42.686;23.244;2023-05-10T05:01:30;5.77;;;5.37;;
10731;SDS011;5417;42.686;23.244;2023-05-10T05:03:57;5.37;;;4.97;;
10731;SDS011;5417;42.686;23.244;2023-05-10T05:06:24;5.57;;;5.27;;
10731;SDS011;5417;42.686;23.244;2023-05-10T05:08:52;6.07;;;5.67;;
10731;SDS011;5417;42.686;23.244;2023-05-10T05:11:19;6.03;;;5.53;;
10731;SDS011;5417;42.686;23.244;2023-05-10T05:13:46;5.43;;;5.03;;
10731;SDS011;5417;42.686;23.244;2023-05-10T05:16:14;5.40;;;5.10;;
10731;SDS011;5417;42.686;23.244;2023-05-10T05:18:42;5.07;;;4.60;;
10731;SDS011;5417;42.686;23.244;2023-05-10T05:21:17;6.20;;;5.70;;
10731;SDS011;5417;42.686;23.244;2023-05-10T05:23:47;5.40;;;5.00;;
10731;SDS011;5417;42.686;23.244;2023-05-10T05:26:14;5.20;;;4.90;;
10731;SDS011;5417;42.686;23.244;2023-05-10T05:28:41;5.77;;;5.27;;
10731;SDS011;5417;42.686;23.244;2023-05-10T05:31:08;6.10;;;5.67;;
10731;SDS011;5417;42.686;23.244;2023-05-10T05:33:36;6.17;;;5.77;;
10731;SDS011;5417;42.686;23.244;2023-05-10T05:36:04;7.50;;;5.83;;
10731;SDS011;5417;42.686;23.244;2023-05-10T05:38:32;5.63;;;5.23;;
10731;SDS011;5417;42.686;23.244;2023-05-10T05:40:59;10.63;;;5.67;;
10731;SDS011;5417;42.686;23.244;2023-05-10T05:43:26;6.17;;;5.70;;
10731;SDS011;5417;42.686;23.244;2023-05-10T05:45:53;6.77;;;6.20;;
10731;SDS011;5417;42.686;23.244;2023-05-10T05:48:20;6.60;;;6.00;;
10731;SDS011;5417;42.686;23.244;2023-05-10T05:50:48;5.77;;;5.37;;
10731;SDS011;5417;42.686;23.244;2023-05-10T05:53:15;6.20;;;5.77;;
10731;SDS011;5417;42.686;23.244;2023-05-10T05:55:50;6.60;;;6.00;;
10731;SDS011;5417;42.686;23.244;2023-05-10T05:58:17;6.57;;;6.13;;
10731;SDS011;5417;42.686;23.244;2023-05-10T06:00:50;7.57;;;6.97;;
10731;SDS011;5417;42.686;23.244;2023-05-10T06:03:18;6.80;;;6.30;;
10731;SDS011;5417;42.686;23.244;2023-05-10T06:05:45;6.70;;;6.17;;
10731;SDS011;5417;42.686;23.244;2023-05-10T06:08:14;12.40;;;6.80;;
10731;SDS011;5417;42.686;23.244;2023-05-10T06:10:41;7.33;;;6.73;;
10731;SDS011;5417;42.686;23.244;2023-05-10T06:13:08;6.70;;;6.17;;
10731;SDS011;5417;42.686;23.244;2023-05-10T06:15:35;8.23;;;7.63;;
10731;SDS011;5417;42.686;23.244;2023-05-10T06:18:01;7.50;;;7.00;;
10731;SDS011;5417;42.686;23.244;2023-05-10T06:20:28;7.70;;;7.00;;
10731;SDS011;5417;42.686;23.244;2023-05-10T06:22:56;8.10;;;7.40;;
10731;SDS011;5417;42.686;23.244;2023-05-10T06:25:24;8.00;;;7.43;;
10731;SDS011;5417;42.686;23.244;2023-05-10T06:27:51;9.33;;;8.60;;
10731;SDS011;5417;42.686;23.244;2023-05-10T06:30:22;8.10;;;7.33;;
10731;SDS011;5417;42.686;23.244;2023-05-10T06:32:53;8.27;;;7.67;;
10731;SDS011;5417;42.686;23.244;2023-05-10T06:35:22;8.17;;;7.37;;
10731;SDS011;5417;42.686;23.244;2023-05-10T06:37:49;8.17;;;7.47;;
10731;SDS011;5417;42.686;23.244;2023-05-10T06:40:17;8.60;;;7.80;;
10731;SDS011;5417;42.686;23.244;2023-05-10T06:42:46;8.17;;;7.57;;
10731;SDS011;5417;42.686;23.244;2023-05-10T06:45:13;8.67;;;7.80;;
10731;SDS011;5417;42.686;23.244;2023-05-10T06:47:46;7.73;;;7.03;;
10731;SDS011;5417;42.686;23.244;2023-05-10T06:50:13;8.00;;;7.40;;
10731;SDS011;5417;42.686;23.244;2023-05-10T06:52:40;8.13;;;7.43;;
10731;SDS011;5417;42.686;23.244;2023-05-10T06:55:12;8.13;;;7.53;;
10731;SDS011;5417;42.686;23.244;2023-05-10T06:57:39;8.10;;;7.40;;
10731;SDS011;5417;42.686;23.244;2023-05-10T07:00:08;8.20;;;7.50;;
10731;SDS011;5417;42.686;23.244;2023-05-10T07:02:35;7.57;;;6.83;;
10731;SDS011;5417;42.686;23.244;2023-05-10T07:05:02;8.03;;;7.23;;
10731;SDS011;5417;42.686;23.244;2023-05-10T07:07:30;7.77;;;7.17;;
10731;SDS011;5417;42.686;23.244;2023-05-10T07:09:56;8.40;;;7.60;;
10731;SDS011;5417;42.686;23.244;2023-05-10T07:12:23;7.93;;;7.27;;
10731;SDS011;5417;42.686;23.244;2023-05-10T07:14:50;6.97;;;6.40;;
10731;SDS011;5417;42.686;23.244;2023-05-10T07:17:19;7.07;;;6.57;;
10731;SDS011;5417;42.686;23.244;2023-05-10T07:19:45;8.13;;;7.43;;
10731;SDS011;5417;42.686;23.244;2023-05-10T07:22:12;9.47;;;8.50;;
10731;SDS011;5417;42.686;23.244;2023-05-10T07:24:40;8.83;;;8.10;;
10731;SDS011;5417;42.686;23.244;2023-05-10T07:27:07;8.07;;;7.47;;
10731;SDS011;5417;42.686;23.244;2023-05-10T07:29:34;7.87;;;7.27;;
10731;SDS011;5417;42.686;23.244;2023-05-10T07:32:01;7.63;;;6.93;;
10731;SDS011;5417;42.686;23.244;2023-05-10T07:34:29;8.27;;;7.47;;
10731;SDS011;5417;42.686;23.244;2023-05-10T07:36:57;7.87;;;7.27;;
10731;SDS011;5417;42.686;23.244;2023-05-10T07:39:24;8.33;;;7.53;;
10731;SDS011;5417;42.686;23.244;2023-05-10T07:41:51;6.90;;;6.40;;
10731;SDS011;5417;42.686;23.244;2023-05-10T07:44:17;7.63;;;7.03;;
10731;SDS011;5417;42.686;23.244;2023-05-10T07:46:45;7.50;;;6.80;;
10731;SDS011;5417;42.686;23.244;2023-05-10T07:49:12;8.93;;;7.57;;
10731;SDS011;5417;42.686;23.244;2023-05-10T07:51:40;8.30;;;7.60;;
10731;SDS011;5417;42.686;23.244;2023-05-10T07:54:08;7.83;;;7.23;;
10731;SDS011;5417;42.686;23.244;2023-05-10T07:56:35;7.33;;;6.83;;
10731;SDS011;5417;42.686;23.244;2023-05-10T07:59:02;7.73;;;7.13;;
10731;SDS011;5417;42.686;23.244;2023-05-10T08:01:30;8.33;;;7.67;;
10731;SDS011;5417;42.686;23.244;2023-05-10T08:03:57;8.23;;;7.53;;
10731;SDS011;5417;42.686;23.244;2023-05-10T08:06:25;8.33;;;7.73;;
10731;SDS011;5417;42.686;23.244;2023-05-10T08:08:54;8.70;;;7.97;;
10731;SDS011;5417;42.686;23.244;2023-05-10T08:11:21;9.60;;;8.63;;
10731;SDS011;5417;42.686;23.244;2023-05-10T08:13:49;9.07;;;8.37;;
10731;SDS011;5417;42.686;23.244;2023-05-10T08:16:16;8.20;;;7.50;;
10731;SDS011;5417;42.686;23.244;2023-05-10T08:18:44;8.47;;;7.83;;
10731;SDS011;5417;42.686;23.244;2023-05-10T08:21:11;8.13;;;7.43;;
10731;SDS011;5417;42.686;23.244;2023-05-10T08:23:38;8.33;;;7.60;;
10731;SDS011;5417;42.686;23.244;2023-05-10T08:26:08;8.43;;;7.73;;
10731;SDS011;5417;42.686;23.244;2023-05-10T08:28:35;8.67;;;7.97;;
10731;SDS011;5417;42.686;23.244;2023-05-10T08:31:02;8.60;;;7.90;;
10731;SDS011;5417;42.686;23.244;2023-05-10T08:33:29;8.37;;;7.67;;
10731;SDS011;5417;42.686;23.244;2023-05-10T08:35:56;9.23;;;8.47;;
10731;SDS011;5417;42.686;23.244;2023-05-10T08:38:23;8.30;;;7.60;;
10731;SDS011;5417;42.686;23.244;2023-05-10T08:40:50;8.47;;;7.80;;
10731;SDS011;5417;42.686;23.244;2023-05-10T08:43:23;8.40;;;7.70;;
10731;SDS011;5417;42.686;23.244;2023-05-10T08:45:54;8.50;;;7.90;;
10731;SDS011;5417;42.686;23.244;2023-05-10T08:48:22;8.93;;;8.10;;
10731;SDS011;5417;42.686;23.244;2023-05-10T08:50:52;8.20;;;7.40;;
10731;SDS011;5417;42.686;23.244;2023-05-10T08:53:20;8.20;;;7.60;;
10731;SDS011;5417;42.686;23.244;2023-05-10T08:55:50;8.87;;;8.17;;
10731;SDS011;5417;42.686;23.244;2023-05-10T08:58:17;8.13;;;7.43;;
10731;SDS011;5417;42.686;23.244;2023-05-10T09:00:48;8.57;;;7.87;;
10731;SDS011;5417;42.686;23.244;2023-05-10T09:03:15;7.90;;;7.27;;
10731;SDS011;5417;42.686;23.244;2023-05-10T09:05:43;8.87;;;8.10;;
10731;SDS011;5417;42.686;23.244;2023-05-10T09:08:11;8.53;;;7.80;;
10731;SDS011;5417;42.686;23.244;2023-05-10T09:10:38;9.83;;;7.67;;
10731;SDS011;5417;42.686;23.244;2023-05-10T09:13:06;7.47;;;6.87;;
10731;SDS011;5417;42.686;23.244;2023-05-10T09:15:36;8.27;;;7.63;;
10731;SDS011;5417;42.686;23.244;2023-05-10T09:18:04;8.13;;;7.53;;
10731;SDS011;5417;42.686;23.244;2023-05-10T09:20:31;8.83;;;8.23;;
10731;SDS011;5417;42.686;23.244;2023-05-10T09:22:58;8.33;;;7.60;;
10731;SDS011;5417;42.686;23.244;2023-05-10T09:25:25;8.87;;;8.10;;
10731;SDS011;5417;42.686;23.244;2023-05-10T09:27:52;8.37;;;7.67;;
10731;SDS011;5417;42.686;23.244;2023-05-10T09:30:23;8.40;;;7.80;;
10731;SDS011;5417;42.686;23.244;2023-05-10T09:32:52;8.97;;;8.27;;
10731;SDS011;5417;42.686;23.244;2023-05-10T09:35:22;8.07;;;7.47;;
10731;SDS011;5417;42.686;23.244;2023-05-10T09:37:50;8.23;;;7.60;;
10731;SDS011;5417;42.686;23.244;2023-05-10T09:40:19;8.20;;;7.60;;
10731;SDS011;5417;42.686;23.244;2023-05-10T09:42:51;9.10;;;8.23;;
10731;SDS011;5417;42.686;23.244;2023-05-10T09:45:18;7.87;;;7.27;;
10731;SDS011;5417;42.686;23.244;2023-05-10T09:47:46;8.57;;;7.97;;
10731;SDS011;5417;42.686;23.244;2023-05-10T09:50:13;7.83;;;7.33;;
10731;SDS011;5417;42.686;23.244;2023-05-10T09:52:47;8.30;;;7.60;;
10731;SDS011;5417;42.686;23.244;2023-05-10T09:55:15;8.00;;;7.40;;
10731;SDS011;5417;42.686;23.244;2023-05-10T09:57:48;8.73;;;8.13;;
10731;SDS011;5417;42.686;23.244;2023-05-10T10:00:22;9.10;;;8.33;;
10731;SDS011;5417;42.686;23.244;2023-05-10T10:02:53;8.13;;;7.53;;
10731;SDS011;5417;42.686;23.244;2023-05-10T10:05:27;8.50;;;7.53;;
10731;SDS011;5417;42.686;23.244;2023-05-10T10:07:56;8.53;;;7.87;;
10731;SDS011;5417;42.686;23.244;2023-05-10T10:10:24;7.20;;;6.57;;
10731;SDS011;5417;42.686;23.244;2023-05-10T10:12:51;7.60;;;7.00;;
10731;SDS011;5417;42.686;23.244;2023-05-10T10:15:18;7.97;;;7.30;;
10731;SDS011;5417;42.686;23.244;2023-05-10T10:17:46;7.10;;;6.57;;
10731;SDS011;5417;42.686;23.244;2023-05-10T10:20:14;8.30;;;7.60;;
10731;SDS011;5417;42.686;23.244;2023-05-10T10:22:41;8.97;;;8.13;;
10731;SDS011;5417;42.686;23.244;2023-05-10T10:25:10;8.17;;;7.47;;
10731;SDS011;5417;42.686;23.244;2023-05-10T10:27:42;8.20;;;7.60;;
10731;SDS011;5417;42.686;23.244;2023-05-10T10:30:17;8.07;;;7.50;;
10731;SDS011;5417;42.686;23.244;2023-05-10T10:33:01;8.00;;;7.37;;
10731;SDS011;5417;42.686;23.244;2023-05-10T10:35:39;8.20;;;7.60;;
10731;SDS011;5417;42.686;23.244;2023-05-10T10:38:07;8.33;;;7.83;;
10731;SDS011;5417;42.686;23.244;2023-05-10T10:40:36;9.10;;;8.27;;
10731;SDS011;5417;42.686;23.244;2023-05-10T10:43:22;8.37;;;7.70;;
10731;SDS011;5417;42.686;23.244;2023-05-10T10:48:39;7.27;;;6.77;;
10731;SDS011;5417;42.686;23.244;2023-05-10T10:51:06;7.97;;;7.37;;
10731;SDS011;5417;42.686;23.244;2023-05-10T10:53:33;9.07;;;7.63;;
10731;SDS011;5417;42.686;23.244;2023-05-10T10:56:08;9.10;;;8.20;;
10731;SDS011;5417;42.686;23.244;2023-05-10T10:58:38;7.53;;;6.70;;
10731;SDS011;5417;42.686;23.244;2023-05-10T11:01:12;7.93;;;7.23;;
10731;SDS011;5417;42.686;23.244;2023-05-10T11:03:40;7.63;;;7.10;;
10731;SDS011;5417;42.686;23.244;2023-05-10T11:06:28;7.77;;;7.27;;
10731;SDS011;5417;42.686;23.244;2023-05-10T11:08:56;7.97;;;7.17;;
10731;SDS011;5417;42.686;23.244;2023-05-10T11:11:25;7.63;;;6.90;;
10731;SDS011;5417;42.686;23.244;2023-05-10T11:13:51;7.13;;;6.63;;
10731;SDS011;5417;42.686;23.244;2023-05-10T11:16:19;7.20;;;6.60;;
10731;SDS011;5417;42.686;23.244;2023-05-10T11:18:51;7.83;;;7.17;;
10731;SDS011;5417;42.686;23.244;2023-05-10T11:21:20;6.93;;;6.50;;
10731;SDS011;5417;42.686;23.244;2023-05-10T11:23:47;7.17;;;6.77;;
10731;SDS011;5417;42.686;23.244;2023-05-10T11:26:16;8.90;;;8.27;;
10731;SDS011;5417;42.686;23.244;2023-05-10T11:28:45;7.73;;;7.13;;
10731;SDS011;5417;42.686;23.244;2023-05-10T11:31:13;10.17;;;6.83;;
10731;SDS011;5417;42.686;23.244;2023-05-10T11:33:44;7.80;;;7.30;;
10731;SDS011;5417;42.686;23.244;2023-05-10T11:36:11;7.63;;;6.93;;
10731;SDS011;5417;42.686;23.244;2023-05-10T11:38:41;8.13;;;7.40;;
10731;SDS011;5417;42.686;23.244;2023-05-10T11:41:08;7.83;;;7.23;;
10731;SDS011;5417;42.686;23.244;2023-05-10T11:43:41;7.87;;;7.13;;
10731;SDS011;5417;42.686;23.244;2023-05-10T11:46:11;7.63;;;7.13;;
10731;SDS011;5417;42.686;23.244;2023-05-10T11:48:39;7.20;;;6.70;;
10731;SDS011;5417;42.686;23.244;2023-05-10T11:51:07;7.33;;;5.83;;
10731;SDS011;5417;42.686;23.244;2023-05-10T11:53:34;6.67;;;6.27;;
10731;SDS011;5417;42.686;23.244;2023-05-10T11:56:05;6.90;;;6.40;;
10731;SDS011;5417;42.686;23.244;2023-05-10T11:58:32;8.10;;;7.30;;
10731;SDS011;5417;42.686;23.244;2023-05-10T12:01:00;8.37;;;7.57;;
10731;SDS011;5417;42.686;23.244;2023-05-10T12:03:29;8.53;;;7.80;;
10731;SDS011;5417;42.686;23.244;2023-05-10T12:05:57;10.67;;;7.30;;
10731;SDS011;5417;42.686;23.244;2023-05-10T12:08:25;7.57;;;7.07;;
10731;SDS011;5417;42.686;23.244;2023-05-10T12:10:53;7.43;;;6.93;;
10731;SDS011;5417;42.686;23.244;2023-05-10T12:13:30;7.17;;;6.60;;
10731;SDS011;5417;42.686;23.244;2023-05-10T12:15:57;7.87;;;7.20;;
10731;SDS011;5417;42.686;23.244;2023-05-10T12:18:24;7.50;;;6.93;;
10731;SDS011;5417;42.686;23.244;2023-05-10T12:20:53;7.90;;;7.30;;
10731;SDS011;5417;42.686;23.244;2023-05-10T12:23:29;10.87;;;9.97;;
10731;SDS011;5417;42.686;23.244;2023-05-10T12:26:01;8.20;;;7.53;;
10731;SDS011;5417;42.686;23.244;2023-05-10T12:28:29;7.73;;;7.13;;
10731;SDS011;5417;42.686;23.244;2023-05-10T12:30:57;8.77;;;7.90;;
10731;SDS011;5417;42.686;23.244;2023-05-10T12:33:25;7.63;;;7.03;;
10731;SDS011;5417;42.686;23.244;2023-05-10T12:35:53;7.47;;;6.97;;
10731;SDS011;5417;42.686;23.244;2023-05-10T12:38:24;7.57;;;6.87;;
10731;SDS011;5417;42.686;23.244;2023-05-10T12:40:54;8.17;;;7.57;;
10731;SDS011;5417;42.686;23.244;2023-05-10T12:43:21;8.77;;;8.17;;
10731;SDS011;5417;42.686;23.244;2023-05-10T12:45:48;9.17;;;8.30;;
10731;SDS011;5417;42.686;23.244;2023-05-10T12:48:15;8.97;;;8.10;;
10731;SDS011;5417;42.686;23.244;2023-05-10T12:50:42;10.13;;;8.70;;
10731;SDS011;5417;42.686;23.244;2023-05-10T12:53:10;10.00;;;9.07;;
10731;SDS011;5417;42.686;23.244;2023-05-10T12:55:38;9.33;;;8.47;;
10731;SDS011;5417;42.686;23.244;2023-05-10T12:58:05;10.03;;;9.10;;
10731;SDS011;5417;42.686;23.244;2023-05-10T13:00:32;9.27;;;8.30;;
10731;SDS011;5417;42.686;23.244;2023-05-10T13:02:59;9.13;;;8.37;;
10731;SDS011;5417;42.686;23.244;2023-05-10T13:05:26;8.40;;;7.70;;
10731;SDS011;5417;42.686;23.244;2023-05-10T13:07:52;9.07;;;8.17;;
10731;SDS011;5417;42.686;23.244;2023-05-10T13:10:21;8.10;;;7.43;;
10731;SDS011;5417;42.686;23.244;2023-05-10T13:12:48;8.53;;;7.70;;
10731;SDS011;5417;42.686;23.244;2023-05-10T13:15:15;8.90;;;8.00;;
10731;SDS011;5417;42.686;23.244;2023-05-10T13:17:42;8.87;;;8.17;;
10731;SDS011;5417;42.686;23.244;2023-05-10T13:20:10;8.47;;;7.77;;
10731;SDS011;5417;42.686;23.244;2023-05-10T13:22:37;8.93;;;8.10;;
10731;SDS011;5417;42.686;23.244;2023-05-10T13:25:04;8.70;;;8.00;;
10731;SDS011;5417;42.686;23.244;2023-05-10T13:27:33;8.37;;;7.57;;
10731;SDS011;5417;42.686;23.244;2023-05-10T13:30:00;8.97;;;8.17;;
10731;SDS011;5417;42.686;23.244;2023-05-10T13:32:28;12.17;;;9.00;;
10731;SDS011;5417;42.686;23.244;2023-05-10T13:34:55;8.63;;;7.83;;
10731;SDS011;5417;42.686;23.244;2023-05-10T13:37:22;7.70;;;7.10;;
10731;SDS011;5417;42.686;23.244;2023-05-10T13:39:49;8.33;;;7.63;;
10731;SDS011;5417;42.686;23.244;2023-05-10T13:42:15;8.77;;;7.97;;
10731;SDS011;5417;42.686;23.244;2023-05-10T13:44:44;10.77;;;8.37;;
10731;SDS011;5417;42.686;23.244;2023-05-10T13:47:11;9.13;;;8.33;;
10731;SDS011;5417;42.686;23.244;2023-05-10T13:49:38;7.87;;;7.27;;
10731;SDS011;5417;42.686;23.244;2023-05-10T13:52:05;8.53;;;7.73;;
10731;SDS011;5417;42.686;23.244;2023-05-10T13:54:32;8.60;;;7.90;;
10731;SDS011;5417;42.686;23.244;2023-05-10T13:56:59;8.27;;;7.63;;
10731;SDS011;5417;42.686;23.244;2023-05-10T13:59:25;9.00;;;8.20;;
10731;SDS011;5417;42.686;23.244;2023-05-10T14:01:54;9.33;;;8.63;;
10731;SDS011;5417;42.686;23.244;2023-05-10T14:04:21;9.37;;;8.67;;
10731;SDS011;5417;42.686;23.244;2023-05-10T14:06:47;8.03;;;7.33;;
10731;SDS011;5417;42.686;23.244;2023-05-10T14:09:14;8.90;;;8.20;;
10731;SDS011;5417;42.686;23.244;2023-05-10T14:11:41;9.53;;;8.50;;
10731;SDS011;5417;42.686;23.244;2023-05-10T14:14:10;9.00;;;8.20;;
10731;SDS011;5417;42.686;23.244;2023-05-10T14:16:37;7.93;;;7.37;;
10731;SDS011;5417;42.686;23.244;2023-05-10T14:19:06;8.67;;;7.90;;
10731;SDS011;5417;42.686;23.244;2023-05-10T14:21:33;8.40;;;7.57;;
10731;SDS011;5417;42.686;23.244;2023-05-10T14:24:00;8.90;;;8.10;;
10731;SDS011;5417;42.686;23.244;2023-05-10T14:26:27;8.10;;;7.50;;
10731;SDS011;5417;42.686;23.244;2023-05-10T14:28:54;8.40;;;7.60;;
10731;SDS011;5417;42.686;23.244;2023-05-10T14:31:20;8.53;;;7.70;;
10731;SDS011;5417;42.686;23.244;2023-05-10T14:33:49;9.00;;;8.13;;
10731;SDS011;5417;42.686;23.244;2023-05-10T14:36:18;8.63;;;7.83;;
10731;SDS011;5417;42.686;23.244;2023-05-10T14:38:45;8.17;;;7.37;;
10731;SDS011;5417;42.686;23.244;2023-05-10T14:41:11;9.33;;;8.50;;
10731;SDS011;5417;42.686;23.244;2023-05-10T14:43:40;7.90;;;7.33;;
10731;SDS011;5417;42.686;23.244;2023-05-10T14:46:07;9.10;;;8.17;;
10731;SDS011;5417;42.686;23.244;2023-05-10T14:48:35;9.40;;;8.50;;
10731;SDS011;5417;42.686;23.244;2023-05-10T14:51:02;9.33;;;8.50;;
10731;SDS011;5417;42.686;23.244;2023-05-10T14:53:31;8.17;;;7.57;;
10731;SDS011;5417;42.686;23.244;2023-05-10T14:55:57;9.23;;;8.53;;
10731;SDS011;5417;42.686;23.244;2023-05-10T14:58:26;8.87;;;8.10;;
10731;SDS011;5417;42.686;23.244;2023-05-10T15:00:53;10.43;;;8.23;;
10731;SDS011;5417;42.686;23.244;2023-05-10T15:03:20;9.23;;;8.43;;
10731;SDS011;5417;42.686;23.244;2023-05-10T15:05:47;8.20;;;7.60;;